LNG Libra — V7BX3 — position and weather

sailwx.info

Track history (hours):
 
Tides and Currents Weather Stations Pressure Air Temp Water Temp Dewpoint Dewpoint Depression Visibility Wind Speed Wind Dir Waves Ship Positions

LNG Libra

Last reported at 2014-Nov-22 15:33 UTC. Time now 2014-Nov-26 12:46 UTC.
Position S 34°46' W 057°34'.

Type: Tanker. MMSI: 538001390.

Date/timePositionNaut miles runAvg speedWind from/ knotsBaromVisibWave heightAir tempDewpointWater temp
2014-Nov-22 15:33S 34°46' W 057°34'1212.4
2014-Nov-22 14:33S 34°43' W 057°49'2 2.4
2014-Nov-22 13:32S 34°43' W 057°52'0 0.1
2014-Nov-22 12:32S 34°43' W 057°52'0 0.2
2014-Nov-22 11:32S 34°43' W 057°52'0 0.1
2014-Nov-22 10:32S 34°43' W 057°52'0 0.0
2014-Nov-22 09:32S 34°43' W 057°52'0 0.0
2014-Nov-22 08:32S 34°43' W 057°52'0 0.0
2014-Nov-22 07:29S 34°43' W 057°52'0 0.1
2014-Nov-22 06:32S 34°43' W 057°52'0 0.1
2014-Nov-22 05:32S 34°43' W 057°52'0 0.0
2014-Nov-22 04:32S 34°43' W 057°52'0 0.1
2014-Nov-22 03:29S 34°43' W 057°52'0 0.1
2014-Nov-22 02:32S 34°43' W 057°52'0 0.0
2014-Nov-22 01:32S 34°43' W 057°52'0 0.0
2014-Nov-22 00:32S 34°43' W 057°52'0 0.1
2014-Nov-21 23:32S 34°43' W 057°52'0 0.1
2014-Nov-21 22:32S 34°43' W 057°52'0 0.1
2014-Nov-21 21:32S 34°43' W 057°52'0 0.2
2014-Nov-21 20:29S 34°43' W 057°52'0 0.0
2014-Nov-21 19:31S 34°43' W 057°52'0 0.0
2014-Nov-21 18:31S 34°43' W 057°52'0 0.0
2014-Nov-21 17:31S 34°43' W 057°52'0 0.0
2014-Nov-21 16:31S 34°43' W 057°52'0 0.3
2014-Nov-21 15:31S 34°43' W 057°52'0 0.0
2014-Nov-21 14:31S 34°43' W 057°52'0 0.1
2014-Nov-21 13:31S 34°43' W 057°52'4 3.7
2014-Nov-21 12:33S 34°42' W 057°56'1312.8
2014-Nov-21 11:33S 34°37' W 058°11'1110.7
2014-Nov-21 10:32S 34°31' W 058°21'9 0.2
2014-Nov-19 13:28S 34°37' W 058°14'1111.7
2014-Nov-19 12:33S 34°40' W 058°02'1211.6
2014-Nov-19 11:33S 34°43' W 057°48'10 9.8
2014-Nov-19 10:33S 34°45' W 057°37'1211.6
2014-Nov-19 09:33S 34°50' W 057°24'1211.8
2014-Nov-19 08:33S 34°59' W 057°14'1111.5
2014-Nov-19 07:34S 35°07' W 057°04'1111.0
2014-Nov-19 06:33S 35°10' W 056°51'1211.9
2014-Nov-19 05:33S 35°10' W 056°37'1312.7
2014-Nov-19 04:33S 35°10' W 056°21'  
Track history (hours):
 
Tides and Currents Weather Stations Pressure Air Temp Water Temp Dewpoint Dewpoint Depression Visibility Wind Speed Wind Dir Waves Ship Positions

LNG Libra

Last reported at 2014-Nov-22 15:33 UTC. Time now 2014-Nov-26 12:46 UTC.
Position S 34°46' W 057°34'.

Type: Tanker. MMSI: 538001390.

Date/timePositionNaut miles runAvg speedWind from/ knotsBaromVisibWave heightAir tempDewpointWater temp
2014-Nov-22 15:33S 34°46' W 057°34'1212.4
2014-Nov-22 14:33S 34°43' W 057°49'2 2.4
2014-Nov-22 13:32S 34°43' W 057°52'0 0.1
2014-Nov-22 12:32S 34°43' W 057°52'0 0.2
2014-Nov-22 11:32S 34°43' W 057°52'0 0.1
2014-Nov-22 10:32S 34°43' W 057°52'0 0.0
2014-Nov-22 09:32S 34°43' W 057°52'0 0.0
2014-Nov-22 08:32S 34°43' W 057°52'0 0.0
2014-Nov-22 07:29S 34°43' W 057°52'0 0.1
2014-Nov-22 06:32S 34°43' W 057°52'0 0.1
2014-Nov-22 05:32S 34°43' W 057°52'0 0.0
2014-Nov-22 04:32S 34°43' W 057°52'0 0.1
2014-Nov-22 03:29S 34°43' W 057°52'0 0.1
2014-Nov-22 02:32S 34°43' W 057°52'0 0.0
2014-Nov-22 01:32S 34°43' W 057°52'0 0.0
2014-Nov-22 00:32S 34°43' W 057°52'0 0.1
2014-Nov-21 23:32S 34°43' W 057°52'0 0.1
2014-Nov-21 22:32S 34°43' W 057°52'0 0.1
2014-Nov-21 21:32S 34°43' W 057°52'0 0.2
2014-Nov-21 20:29S 34°43' W 057°52'0 0.0
2014-Nov-21 19:31S 34°43' W 057°52'0 0.0
2014-Nov-21 18:31S 34°43' W 057°52'0 0.0
2014-Nov-21 17:31S 34°43' W 057°52'0 0.0
2014-Nov-21 16:31S 34°43' W 057°52'0 0.3
2014-Nov-21 15:31S 34°43' W 057°52'0 0.0
2014-Nov-21 14:31S 34°43' W 057°52'0 0.1
2014-Nov-21 13:31S 34°43' W 057°52'4 3.7
2014-Nov-21 12:33S 34°42' W 057°56'1312.8
2014-Nov-21 11:33S 34°37' W 058°11'1110.7
2014-Nov-21 10:32S 34°31' W 058°21'9 0.2
2014-Nov-19 13:28S 34°37' W 058°14'1111.7
2014-Nov-19 12:33S 34°40' W 058°02'1211.6
2014-Nov-19 11:33S 34°43' W 057°48'10 9.8
2014-Nov-19 10:33S 34°45' W 057°37'1211.6
2014-Nov-19 09:33S 34°50' W 057°24'1211.8
2014-Nov-19 08:33S 34°59' W 057°14'1111.5
2014-Nov-19 07:34S 35°07' W 057°04'1111.0
2014-Nov-19 06:33S 35°10' W 056°51'1211.9
2014-Nov-19 05:33S 35°10' W 056°37'1312.7
2014-Nov-19 04:33S 35°10' W 056°21'  

Dump ship's entire track history